Aviation Digital Data Service (ADDS)

Output produced by METARs form (0942 UTC 24 March 2019)
found at http://www.aviationweather.gov/metar/data/
 
METAR text: DNAK 240500Z 21003KT 9999 BKN010 26/25 Q1012
Conditions at: DNAK (AKURE AIRPORT , NG) observed 0500 UTC 24 March 2019
Temperature: 26.0°C (79°F)
Dewpoint: 25.0°C (77°F) [RH = 94%]
Pressure (altimeter): 29.88 inches Hg (1012.0 mb)
Winds: from the SSW (210 degrees) at 3 MPH (3 knots; 1.5 m/s)
Visibility: 6 or more miles (10+ km)
Ceiling: 1000 feet AGL
Clouds: broken clouds at 1000 feet AGL
Weather: no significant weather observed at this time

METAR text: DNAK 240400Z 26005KT 9999 BKN009 25/24 Q1011
Conditions at: DNAK (AKURE AIRPORT , NG) observed 0400 UTC 24 March 2019
Temperature: 25.0°C (77°F)
Dewpoint: 24.0°C (75°F) [RH = 94%]
Pressure (altimeter): 29.85 inches Hg (1011.0 mb)
Winds: from the W (260 degrees) at 6 MPH (5 knots; 2.6 m/s)
Visibility: 6 or more miles (10+ km)
Ceiling: 900 feet AGL
Clouds: broken clouds at 900 feet AGL
Weather: no significant weather observed at this time

METAR text: DNAK 240300Z 24003KT 9999 BKN009 25/24 Q1011
Conditions at: DNAK (AKURE AIRPORT , NG) observed 0300 UTC 24 March 2019
Temperature: 25.0°C (77°F)
Dewpoint: 24.0°C (75°F) [RH = 94%]
Pressure (altimeter): 29.85 inches Hg (1011.0 mb)
Winds: from the WSW (240 degrees) at 3 MPH (3 knots; 1.5 m/s)
Visibility: 6 or more miles (10+ km)
Ceiling: 900 feet AGL
Clouds: broken clouds at 900 feet AGL
Weather: no significant weather observed at this time

METAR text: DNAK 232300Z 00000KT 9999 FEW010 26/24 Q1012
Conditions at: DNAK (AKURE AIRPORT , NG) observed 2300 UTC 23 March 2019
Temperature: 26.0°C (79°F)
Dewpoint: 24.0°C (75°F) [RH = 89%]
Pressure (altimeter): 29.88 inches Hg (1012.0 mb)
Winds: calm
Visibility: 6 or more miles (10+ km)
Ceiling: at least 12,000 feet AGL
Clouds: few clouds at 1000 feet AGL
Weather: no significant weather observed at this time

Forecast for: DNAK (AKURE AIRPORT , NG)
Text: TAF DNAK 240350Z 2406/2512 VRB02KT 8000 FEW010
Forecast period: 0600 to 0800 UTC 24 March 2019
Forecast type: FROM: standard forecast or significant change
Winds: variable direction winds at 2 MPH (2 knots; 1.0 m/s)
Visibility: 5 miles (8 km)
Ceiling: at least 12,000 feet AGL
Clouds: few clouds at 1000 feet AGL
Weather: no significant weather forecast for this period
Text: BECMG 2408/2410 22010KT BKN013 FEW020CB
Forecast period: 0800 UTC 24 March 2019 to 1200 UTC 25 March 2019
Forecast type: BECOMING: Conditions expected to become as follows by 1000 UTC 24 March 2019
Winds: from the SW (220 degrees) at 12 MPH (10 knots; 5.1 m/s)
Visibility: 5 miles (8 km)
Ceiling: 1300 feet AGL
Clouds: broken clouds at 1300 feet AGL
few clouds at 2000 feet AGL
Weather: no significant weather forecast for this period
Text: TEMPO 2418/2420 VRB02KT FEW011
Forecast period: 1800 to 2000 UTC 24 March 2019
Forecast type: TEMPORARY: The following changes expected for less than half the time period
Winds: variable direction winds at 2 MPH (2 knots; 1.0 m/s)
Visibility: missing
Ceiling: at least 12,000 feet AGL
Clouds: few clouds at 1100 feet AGL
Weather: no significant weather forecast for this period